Time;durP1;ratioP1;P1;durP2;ratioP2;P2;SDS_P1;SDS_P2;PMS_P1;PMS_P2;Temp;Humidity;BMP_temperature;BMP_pressure;BME280_temperature;BME280_humidity;BME280_pressure;Samples;Min_cycle;Max_cycle;Signal;HPM_P1;HPM_P2
2021/05/29 00:01:46;;;;;;;4.90;4.40;;;11.30;99.90;;;;;;5054409;28;20184;-79
2021/05/29 00:04:12;;;;;;;4.90;4.40;;;11.30;99.90;;;;;;5054952;28;20425;-79
2021/05/29 00:06:41;;;;;;;5.60;4.90;;;11.20;99.90;;;;;;5054480;28;20432;-79
2021/05/29 00:09:07;;;;;;;5.70;5.10;;;11.20;99.90;;;;;;5054651;28;20785;-79
2021/05/29 00:11:35;;;;;;;5.10;4.43;;;11.20;99.90;;;;;;5054342;28;20423;-79
2021/05/29 00:14:04;;;;;;;5.43;4.90;;;11.20;99.90;;;;;;5054484;28;20480;-79
2021/05/29 00:16:32;;;;;;;10.50;5.00;;;11.10;99.90;;;;;;5037347;28;20759;-79
2021/05/29 00:18:58;;;;;;;4.90;4.50;;;11.10;99.90;;;;;;5054468;28;20435;-79
2021/05/29 00:21:30;;;;;;;5.63;5.03;;;11.00;99.90;;;;;;5053904;28;20459;-79
2021/05/29 00:23:56;;;;;;;4.73;4.30;;;11.00;99.90;;;;;;5054280;28;20427;-79
2021/05/29 00:26:22;;;;;;;5.87;4.20;;;11.00;99.90;;;;;;5054395;28;20476;-79
2021/05/29 00:28:53;;;;;;;5.70;5.20;;;11.00;99.90;;;;;;5054125;28;20437;-79
2021/05/29 00:31:22;;;;;;;5.73;4.83;;;10.90;99.90;;;;;;5064377;28;20470;-79
2021/05/29 00:33:50;;;;;;;5.03;4.63;;;10.90;99.90;;;;;;5054205;28;20446;-79
2021/05/29 00:36:16;;;;;;;4.80;4.10;;;10.90;99.90;;;;;;5036721;28;20438;-79
2021/05/29 00:38:48;;;;;;;4.50;4.10;;;10.80;99.90;;;;;;5056753;28;20419;-79
2021/05/29 00:41:18;;;;;;;4.43;4.03;;;10.80;99.90;;;;;;5073318;28;20456;-79
2021/05/29 00:43:45;;;;;;;5.10;4.60;;;10.80;99.90;;;;;;5054243;28;20500;-79
2021/05/29 00:46:14;;;;;;;7.97;4.93;;;10.80;99.90;;;;;;5053992;28;20517;-79
2021/05/29 00:48:42;;;;;;;5.00;4.57;;;10.80;99.90;;;;;;5053849;28;20427;-79
2021/05/29 00:51:11;;;;;;;4.93;4.53;;;10.80;99.90;;;;;;5052814;28;20444;-79
2021/05/29 00:53:40;;;;;;;5.43;4.50;;;10.80;99.90;;;;;;5054026;28;20458;-79
2021/05/29 00:56:09;;;;;;;5.10;4.20;;;10.80;99.90;;;;;;5053754;28;20426;-79
2021/05/29 00:58:38;;;;;;;5.87;5.27;;;10.80;99.90;;;;;;5054979;28;20476;-79
2021/05/29 01:01:06;;;;;;;8.30;4.60;;;10.70;99.90;;;;;;5052871;28;20410;-79
2021/05/29 01:03:36;;;;;;;5.70;5.03;;;10.70;99.90;;;;;;5054068;28;20431;-79
2021/05/29 01:06:05;;;;;;;6.70;4.87;;;10.60;99.90;;;;;;5054097;28;20762;-79
2021/05/29 01:08:31;;;;;;;6.70;4.60;;;10.60;99.90;;;;;;5019843;28;20422;-79
2021/05/29 01:10:59;;;;;;;6.17;4.60;;;10.60;99.90;;;;;;5067073;28;20421;-79
2021/05/29 01:13:30;;;;;;;5.10;4.60;;;10.60;99.90;;;;;;5055837;28;20440;-79
2021/05/29 01:16:11;;;;;;;5.40;4.93;;;10.50;99.90;;;;;;5073557;28;20465;-79
2021/05/29 01:18:41;;;;;;;6.13;4.37;;;10.50;99.90;;;;;;5058512;28;20426;-79
2021/05/29 01:21:09;;;;;;;7.97;5.63;;;10.50;99.90;;;;;;5054149;28;20435;-79
2021/05/29 01:23:35;;;;;;;5.70;5.10;;;10.50;99.90;;;;;;5038068;28;20771;-79
2021/05/29 01:26:04;;;;;;;5.13;4.50;;;10.40;99.90;;;;;;5060139;28;20435;-79
2021/05/29 01:28:33;;;;;;;6.20;5.20;;;10.30;99.90;;;;;;5070887;28;20437;-79
2021/05/29 01:31:09;;;;;;;5.03;4.43;;;10.30;99.90;;;;;;5055508;28;20470;-79
2021/05/29 01:33:37;;;;;;;6.00;4.33;;;10.30;99.90;;;;;;5053611;28;20418;-79
2021/05/29 01:36:09;;;;;;;5.80;5.20;;;10.30;99.90;;;;;;5035400;28;20466;-79
2021/05/29 01:38:40;;;;;;;7.23;5.00;;;10.20;99.90;;;;;;5036188;28;20430;-79
2021/05/29 01:41:12;;;;;;;6.30;4.73;;;10.20;99.90;;;;;;5035933;28;20788;-79
2021/05/29 01:43:46;;;;;;;8.80;4.80;;;10.10;99.90;;;;;;5053010;28;20484;-79
2021/05/29 01:46:19;;;;;;;5.13;4.50;;;10.10;99.90;;;;;;5053232;28;20435;-79
2021/05/29 01:48:48;;;;;;;5.23;4.70;;;10.10;99.90;;;;;;5053602;28;20425;-79
2021/05/29 01:51:25;;;;;;;5.40;4.80;;;10.00;99.90;;;;;;5053431;28;20430;-80
2021/05/29 01:53:58;;;;;;;5.40;4.50;;;10.10;99.90;;;;;;5053230;28;21002;-79
2021/05/29 01:56:31;;;;;;;5.33;4.83;;;10.00;99.90;;;;;;5037722;28;20813;-79
2021/05/29 01:59:00;;;;;;;6.50;4.50;;;10.00;99.90;;;;;;5033141;28;20725;-79
2021/05/29 02:01:26;;;;;;;6.13;4.80;;;9.90;99.90;;;;;;5051700;28;20483;-79
2021/05/29 02:03:59;;;;;;;5.93;5.13;;;10.00;99.90;;;;;;5053124;28;20489;-79
2021/05/29 02:06:27;;;;;;;6.70;4.83;;;9.90;99.90;;;;;;5053277;28;20432;-79
2021/05/29 02:08:53;;;;;;;6.70;6.00;;;9.90;99.90;;;;;;5053162;28;20929;-79
2021/05/29 02:11:19;;;;;;;7.73;5.40;;;9.90;99.90;;;;;;5052907;28;20911;-79
2021/05/29 02:13:47;;;;;;;6.77;5.10;;;9.90;99.90;;;;;;5052763;28;20779;-79
2021/05/29 02:16:16;;;;;;;7.67;5.73;;;9.90;99.90;;;;;;5052080;28;20549;-79
2021/05/29 02:18:44;;;;;;;5.80;5.30;;;9.90;99.90;;;;;;5032555;28;20521;-79
2021/05/29 02:21:13;;;;;;;5.57;4.93;;;9.90;99.90;;;;;;5033075;28;20414;-80
2021/05/29 02:23:41;;;;;;;7.53;5.40;;;9.80;99.90;;;;;;5034511;28;20445;-79
2021/05/29 02:26:20;;;;;;;5.70;5.00;;;9.80;99.90;;;;;;5052161;28;20410;-79
2021/05/29 02:28:55;;;;;;;13.80;5.10;;;9.80;99.90;;;;;;5052990;28;20402;-79
2021/05/29 02:31:24;;;;;;;6.83;5.43;;;9.80;99.90;;;;;;5037869;28;20478;-79
2021/05/29 02:33:55;;;;;;;8.70;5.50;;;9.80;99.90;;;;;;5052793;28;20430;-79
2021/05/29 02:36:25;;;;;;;5.10;4.60;;;9.80;99.90;;;;;;5055458;28;20519;-79
2021/05/29 02:38:53;;;;;;;6.17;5.40;;;9.80;99.90;;;;;;5056464;28;20457;-79
2021/05/29 02:41:21;;;;;;;8.83;5.37;;;9.90;99.90;;;;;;5041011;28;20449;-79
2021/05/29 02:43:52;;;;;;;5.67;5.13;;;9.80;99.90;;;;;;5045657;28;20451;-79
2021/05/29 02:46:17;;;;;;;7.47;5.50;;;9.80;99.90;;;;;;5056284;28;20414;-79
2021/05/29 02:48:46;;;;;;;8.73;5.90;;;9.80;99.90;;;;;;5052991;28;20448;-79
2021/05/29 02:51:14;;;;;;;7.00;6.03;;;9.80;99.90;;;;;;5051864;28;20767;-79
2021/05/29 02:53:45;;;;;;;7.27;5.77;;;9.80;99.90;;;;;;5043016;28;20431;-79
2021/05/29 02:56:11;;;;;;;6.27;5.40;;;9.80;99.90;;;;;;5036137;28;21007;-79
2021/05/29 02:58:39;;;;;;;5.60;4.90;;;9.80;99.90;;;;;;5035622;28;20892;-79
2021/05/29 03:01:10;;;;;;;6.87;5.43;;;9.90;99.90;;;;;;5036031;28;20416;-79
2021/05/29 03:03:38;;;;;;;6.33;5.20;;;9.80;99.90;;;;;;5069622;28;20414;-79
2021/05/29 03:06:09;;;;;;;6.37;5.77;;;9.80;99.90;;;;;;5063631;28;20427;-78
2021/05/29 03:08:35;;;;;;;6.00;5.40;;;9.70;99.90;;;;;;5036051;28;20447;-79
2021/05/29 03:11:04;;;;;;;5.57;5.07;;;9.60;99.90;;;;;;5036184;28;20443;-79
2021/05/29 03:13:30;;;;;;;6.87;5.10;;;9.60;99.90;;;;;;5035875;28;20887;-79
2021/05/29 03:16:01;;;;;;;8.10;4.90;;;9.60;99.90;;;;;;5035336;28;20462;-79
2021/05/29 03:18:30;;;;;;;6.93;5.87;;;9.60;99.90;;;;;;5035734;28;20465;-79
2021/05/29 03:21:03;;;;;;;6.57;5.90;;;9.50;99.90;;;;;;5036324;28;20442;-79
2021/05/29 03:23:29;;;;;;;7.03;5.70;;;9.50;99.90;;;;;;5035724;28;20455;-79
2021/05/29 03:25:55;;;;;;;6.50;5.27;;;9.50;99.90;;;;;;5039856;28;20489;-79
2021/05/29 03:28:31;;;;;;;6.97;4.70;;;9.40;99.90;;;;;;5055574;28;20420;-79
2021/05/29 03:31:01;;;;;;;7.50;5.50;;;9.40;99.90;;;;;;5057814;28;20485;-79
2021/05/29 03:33:34;;;;;;;6.73;5.40;;;9.40;99.90;;;;;;5053211;28;20468;-79
2021/05/29 03:36:00;;;;;;;6.67;5.87;;;9.30;99.90;;;;;;5071062;28;20453;-79
2021/05/29 03:38:28;;;;;;;9.30;5.70;;;9.30;99.90;;;;;;5069106;28;20441;-79
2021/05/29 03:40:57;;;;;;;7.90;5.90;;;9.30;99.90;;;;;;5067152;28;20433;-79
2021/05/29 03:43:22;;;;;;;6.80;6.20;;;9.30;99.90;;;;;;5049728;28;20517;-79
2021/05/29 03:45:53;;;;;;;8.23;5.87;;;9.20;99.90;;;;;;5052996;28;20488;-79
2021/05/29 03:48:19;;;;;;;7.37;5.90;;;9.30;99.90;;;;;;5071780;28;21117;-79
2021/05/29 03:50:47;;;;;;;6.87;5.73;;;9.20;99.90;;;;;;5067882;28;20433;-79
2021/05/29 03:53:13;;;;;;;6.70;5.60;;;9.20;99.90;;;;;;5052735;28;20439;-79
2021/05/29 03:55:39;;;;;;;7.00;5.60;;;9.20;99.90;;;;;;5052568;28;20806;-79
2021/05/29 03:58:08;;;;;;;8.53;6.60;;;9.20;99.90;;;;;;5053153;28;20457;-79
2021/05/29 04:00:34;;;;;;;7.20;5.80;;;9.20;99.90;;;;;;5035650;28;20465;-79
2021/05/29 04:03:03;;;;;;;11.13;6.00;;;9.20;99.90;;;;;;5053780;28;20564;-79
2021/05/29 04:05:33;;;;;;;7.83;5.83;;;9.30;99.90;;;;;;5072460;28;20405;-79
2021/05/29 04:08:05;;;;;;;8.47;5.80;;;9.30;99.90;;;;;;5052519;28;20452;-79
2021/05/29 04:10:35;;;;;;;8.20;5.97;;;9.30;99.90;;;;;;5052054;28;20442;-79
2021/05/29 04:13:06;;;;;;;8.30;6.10;;;9.40;99.90;;;;;;5054069;28;20461;-79
2021/05/29 04:15:32;;;;;;;7.20;5.93;;;9.50;99.90;;;;;;5055189;28;20537;-79
2021/05/29 04:17:58;;;;;;;6.87;5.80;;;9.50;99.90;;;;;;5072461;28;20421;-79
2021/05/29 04:20:26;;;;;;;11.60;6.00;;;9.60;99.90;;;;;;5072812;28;20937;-79
2021/05/29 04:22:59;;;;;;;6.87;5.17;;;9.70;99.90;;;;;;5053898;28;20941;-79
2021/05/29 04:25:28;;;;;;;7.10;5.40;;;9.70;99.90;;;;;;5071792;28;20413;-79
2021/05/29 04:27:57;;;;;;;7.30;5.90;;;9.70;99.90;;;;;;5044565;28;20436;-79
2021/05/29 04:30:25;;;;;;;9.00;6.33;;;9.80;99.90;;;;;;5041488;28;21095;-79
2021/05/29 04:32:59;;;;;;;8.60;6.20;;;9.90;99.90;;;;;;5015109;28;20541;-79
2021/05/29 04:35:27;;;;;;;7.47;6.33;;;9.90;99.90;;;;;;5013058;28;20463;-78
2021/05/29 04:38:00;;;;;;;10.27;6.33;;;10.00;99.90;;;;;;5027286;28;20457;-79
2021/05/29 04:40:29;;;;;;;8.57;7.07;;;10.10;99.90;;;;;;5032316;28;20505;-79
2021/05/29 04:43:03;;;;;;;9.17;8.27;;;10.20;99.90;;;;;;5031963;28;20446;-79
2021/05/29 04:45:29;;;;;;;9.23;7.47;;;10.30;99.90;;;;;;5013988;28;20772;-79
2021/05/29 04:47:59;;;;;;;10.17;8.10;;;10.30;99.90;;;;;;5031372;28;20427;-79
2021/05/29 04:50:25;;;;;;;8.40;7.60;;;10.40;99.90;;;;;;5030418;28;20443;-79
2021/05/29 04:52:56;;;;;;;9.80;7.70;;;10.50;99.90;;;;;;5031943;28;20423;-79
2021/05/29 04:55:25;;;;;;;9.47;7.57;;;10.50;99.90;;;;;;5027665;28;20476;-79
2021/05/29 04:57:51;;;;;;;10.40;8.87;;;10.60;99.90;;;;;;5013008;28;20432;-79
2021/05/29 05:00:24;;;;;;;9.83;8.00;;;10.60;99.90;;;;;;5031135;28;20442;-79
2021/05/29 05:02:50;;;;;;;10.20;7.67;;;10.70;99.90;;;;;;5031422;28;20606;-79
2021/05/29 05:05:18;;;;;;;9.20;8.30;;;10.80;99.90;;;;;;5014181;28;20489;-79
2021/05/29 05:07:51;;;;;;;10.57;9.47;;;10.90;99.90;;;;;;5014585;28;20569;-79
2021/05/29 05:10:17;;;;;;;9.43;8.23;;;11.00;99.90;;;;;;5030967;28;20924;-79
2021/05/29 05:12:48;;;;;;;11.20;8.80;;;11.00;99.90;;;;;;5032439;28;20434;-79
2021/05/29 05:15:18;;;;;;;12.30;9.70;;;11.10;99.90;;;;;;5031098;28;20972;-79
2021/05/29 05:17:44;;;;;;;9.07;8.17;;;11.20;99.90;;;;;;5031257;28;20636;-79
2021/05/29 05:20:18;;;;;;;9.77;8.00;;;11.30;99.90;;;;;;5030576;28;20444;-79
2021/05/29 05:22:47;;;;;;;9.80;7.47;;;11.40;99.90;;;;;;5030286;28;20450;-79
2021/05/29 05:25:16;;;;;;;10.83;8.43;;;11.50;99.90;;;;;;5030583;28;20435;-79
2021/05/29 05:27:43;;;;;;;11.33;9.30;;;11.50;99.90;;;;;;5029673;28;20490;-80
2021/05/29 05:30:11;;;;;;;8.83;7.80;;;11.70;99.90;;;;;;5039343;28;20478;-79
2021/05/29 05:32:38;;;;;;;13.23;8.13;;;11.80;99.90;;;;;;5046728;28;20521;-79
2021/05/29 05:35:10;;;;;;;9.87;8.20;;;11.90;99.90;;;;;;5050470;28;20462;-79
2021/05/29 05:37:36;;;;;;;10.20;7.50;;;12.00;99.90;;;;;;5051680;28;20922;-79
2021/05/29 05:40:09;;;;;;;8.43;7.03;;;12.00;99.90;;;;;;5033948;28;20427;-79
2021/05/29 05:42:38;;;;;;;8.63;7.73;;;12.10;99.90;;;;;;5051276;28;20449;-79
2021/05/29 05:45:09;;;;;;;9.50;7.07;;;12.20;99.90;;;;;;5049892;28;20427;-79
2021/05/29 05:47:38;;;;;;;8.33;7.37;;;12.30;99.90;;;;;;5051230;28;20446;-79
2021/05/29 05:50:09;;;;;;;9.97;6.87;;;12.40;99.90;;;;;;5033823;28;20432;-79
2021/05/29 05:52:40;;;;;;;9.10;7.40;;;12.50;99.90;;;;;;5051957;28;20446;-78
2021/05/29 05:55:08;;;;;;;8.60;7.30;;;12.50;99.90;;;;;;5043070;28;20595;-79
2021/05/29 05:57:39;;;;;;;11.10;7.30;;;12.50;99.90;;;;;;5051632;28;20739;-79
2021/05/29 06:00:13;;;;;;;9.23;6.47;;;12.70;99.90;;;;;;5051382;28;20453;-80
2021/05/29 06:02:39;;;;;;;10.60;8.53;;;12.70;99.90;;;;;;5051038;28;20403;-80
2021/05/29 06:05:06;;;;;;;8.27;7.07;;;12.80;99.90;;;;;;5050619;28;20434;-79
2021/05/29 06:07:38;;;;;;;9.37;7.10;;;12.90;99.90;;;;;;5033491;28;20429;-79
2021/05/29 06:10:08;;;;;;;8.73;6.00;;;12.90;99.90;;;;;;5050931;28;20411;-79
2021/05/29 06:12:43;;;;;;;7.53;6.07;;;13.00;99.90;;;;;;5055104;28;20431;-79
2021/05/29 06:18:03;;;;;;;6.63;6.00;;;13.20;99.90;;;;;;5055205;28;20533;-79
2021/05/29 06:20:39;;;;;;;7.20;6.13;;;13.30;99.90;;;;;;5054467;28;21200;-79
2021/05/29 06:23:08;;;;;;;6.73;5.70;;;13.40;99.90;;;;;;5054644;28;20422;-79
2021/05/29 06:25:37;;;;;;;7.27;6.47;;;13.50;99.90;;;;;;5037299;28;20538;-80
2021/05/29 06:28:03;;;;;;;6.33;5.43;;;13.70;99.90;;;;;;5053171;28;21044;-79
2021/05/29 06:30:31;;;;;;;6.77;6.17;;;13.80;99.90;;;;;;5053819;28;20538;-79
2021/05/29 06:32:57;;;;;;;8.90;5.20;;;13.90;99.90;;;;;;5054574;28;20450;-80
2021/05/29 06:35:26;;;;;;;5.70;4.90;;;14.00;99.90;;;;;;5054765;28;20524;-80
2021/05/29 06:37:52;;;;;;;7.43;5.60;;;14.00;99.90;;;;;;5037242;28;20910;-80
2021/05/29 06:40:20;;;;;;;5.90;5.10;;;14.20;99.90;;;;;;5055383;28;20428;-80
2021/05/29 06:42:46;;;;;;;6.73;5.37;;;14.20;99.90;;;;;;5053943;28;20435;-80
2021/05/29 06:45:15;;;;;;;7.83;5.70;;;14.30;99.90;;;;;;5054128;28;20445;-80
2021/05/29 06:47:41;;;;;;;6.10;5.60;;;14.30;99.90;;;;;;5054113;28;20444;-79
2021/05/29 06:50:09;;;;;;;6.23;5.63;;;14.50;99.90;;;;;;5053169;28;20436;-80
2021/05/29 06:52:43;;;;;;;5.80;5.30;;;14.50;99.90;;;;;;5054569;28;20515;-80
2021/05/29 07:00:47;;;;;;;6.00;5.40;;;14.50;99.90;;;;;;5054767;28;20430;-81
2021/05/29 07:03:13;;;;;;;5.53;5.03;;;14.50;99.90;;;;;;5036716;28;20428;-80
2021/05/29 07:05:41;;;;;;;6.57;5.87;;;14.70;99.90;;;;;;5050205;28;20440;-79
2021/05/29 07:08:07;;;;;;;5.63;5.00;;;14.90;99.90;;;;;;5034082;28;20463;-79
2021/05/29 07:10:35;;;;;;;6.57;5.60;;;15.00;99.90;;;;;;5050729;28;20846;-80
2021/05/29 07:13:01;;;;;;;6.67;6.07;;;15.10;99.90;;;;;;5054308;28;20443;-80
2021/05/29 07:15:34;;;;;;;6.00;5.40;;;15.20;99.90;;;;;;5036758;28;20462;-80
2021/05/29 07:18:05;;;;;;;5.63;5.13;;;15.30;99.90;;;;;;5054033;28;20426;-80
2021/05/29 07:20:33;;;;;;;6.27;5.67;;;15.40;99.90;;;;;;5054270;28;20435;-79
2021/05/29 07:23:02;;;;;;;9.40;5.80;;;15.50;99.90;;;;;;5052065;28;20995;-79
2021/05/29 07:25:31;;;;;;;6.47;5.83;;;15.60;99.90;;;;;;5053434;28;20897;-80
2021/05/29 07:27:57;;;;;;;6.70;5.80;;;15.70;99.90;;;;;;5053113;28;20539;-79
2021/05/29 07:30:23;;;;;;;6.10;5.60;;;15.70;99.90;;;;;;5059520;28;20561;-79
2021/05/29 07:32:54;;;;;;;6.63;6.13;;;15.70;99.90;;;;;;5073775;28;20500;-80
2021/05/29 07:35:21;;;;;;;6.30;5.70;;;15.80;99.90;;;;;;5036442;28;20466;-79
2021/05/29 07:37:47;;;;;;;8.33;6.20;;;15.80;99.90;;;;;;5058114;28;20846;-79
2021/05/29 07:40:16;;;;;;;5.63;5.13;;;15.80;99.90;;;;;;5045396;28;20426;-79
2021/05/29 07:42:42;;;;;;;6.23;5.70;;;15.80;99.90;;;;;;5038080;28;20421;-80
2021/05/29 07:45:16;;;;;;;6.00;5.50;;;15.80;99.90;;;;;;5055675;28;20442;-80
2021/05/29 07:47:43;;;;;;;6.30;5.80;;;16.10;99.90;;;;;;5037910;28;20431;-79
2021/05/29 07:50:14;;;;;;;6.70;6.10;;;16.10;99.90;;;;;;5055751;28;20930;-79
2021/05/29 07:52:43;;;;;;;6.73;5.80;;;16.10;99.90;;;;;;5055174;28;20427;-79
2021/05/29 07:55:10;;;;;;;6.27;5.67;;;16.30;99.90;;;;;;5031979;28;20461;-79
2021/05/29 07:57:39;;;;;;;6.30;5.80;;;16.30;99.90;;;;;;5059810;28;20509;-79
2021/05/29 08:00:17;;;;;;;6.40;5.80;;;16.40;99.90;;;;;;5054897;28;20412;-79
2021/05/29 08:02:43;;;;;;;7.10;6.43;;;16.40;99.90;;;;;;5041611;28;20414;-80
2021/05/29 08:05:16;;;;;;;6.60;6.03;;;16.50;99.90;;;;;;5020810;28;20505;-79
2021/05/29 08:07:45;;;;;;;7.27;6.67;;;16.50;99.90;;;;;;5037451;28;20399;-79
2021/05/29 08:10:14;;;;;;;6.53;6.03;;;16.50;99.90;;;;;;5039229;28;20451;-79
2021/05/29 08:12:43;;;;;;;6.07;5.63;;;16.60;99.90;;;;;;5074641;28;20440;-79
2021/05/29 08:15:11;;;;;;;7.20;6.50;;;16.70;99.90;;;;;;5071966;28;20775;-79
2021/05/29 08:17:37;;;;;;;10.40;6.80;;;16.80;99.90;;;;;;5037254;28;20426;-79
2021/05/29 08:20:06;;;;;;;6.57;6.07;;;16.80;99.90;;;;;;5065597;28;20451;-79
2021/05/29 08:22:32;;;;;;;7.00;5.70;;;16.90;99.90;;;;;;5054867;28;20440;-80
2021/05/29 08:25:01;;;;;;;7.50;6.73;;;17.00;99.90;;;;;;5025017;28;20434;-79
2021/05/29 08:27:29;;;;;;;7.50;6.77;;;17.10;99.90;;;;;;5037587;28;20429;-80
2021/05/29 08:29:57;;;;;;;7.20;6.60;;;17.20;99.90;;;;;;5054650;28;20477;-79
2021/05/29 08:32:25;;;;;;;6.67;6.07;;;17.20;99.90;;;;;;5040672;28;20430;-79
2021/05/29 08:34:54;;;;;;;6.63;6.13;;;17.20;99.30;;;;;;5034546;28;20477;-79
2021/05/29 08:37:22;;;;;;;6.27;5.67;;;17.00;99.10;;;;;;5046627;28;20442;-79
2021/05/29 08:39:49;;;;;;;6.57;6.07;;;17.00;99.60;;;;;;5054604;28;20309;-80
2021/05/29 08:42:15;;;;;;;7.57;6.70;;;16.90;99.90;;;;;;5053633;28;20427;-79
2021/05/29 08:44:41;;;;;;;7.10;6.53;;;16.80;99.10;;;;;;5054354;28;20516;-79
2021/05/29 08:47:07;;;;;;;6.70;6.20;;;16.80;99.60;;;;;;5034459;28;20581;-79
2021/05/29 08:49:36;;;;;;;7.90;7.20;;;16.80;99.60;;;;;;5034124;28;20474;-80
2021/05/29 08:52:07;;;;;;;7.93;7.00;;;16.80;99.30;;;;;;5013416;28;20456;-79
2021/05/29 08:54:37;;;;;;;7.80;7.20;;;16.70;99.90;;;;;;5014713;28;20446;-79
2021/05/29 08:57:06;;;;;;;7.53;6.87;;;16.90;99.90;;;;;;5017700;28;20465;-78
2021/05/29 08:59:35;;;;;;;8.60;6.80;;;17.10;99.90;;;;;;5014882;28;20446;-79
2021/05/29 09:02:05;;;;;;;8.47;6.63;;;17.20;99.90;;;;;;5054337;28;20521;-79
2021/05/29 09:04:31;;;;;;;7.00;6.30;;;17.30;99.40;;;;;;5039759;28;20907;-79
2021/05/29 09:06:58;;;;;;;6.63;6.13;;;17.40;99.90;;;;;;5017157;28;20416;-79
2021/05/29 09:09:25;;;;;;;7.70;7.03;;;17.60;99.80;;;;;;5034035;28;20420;-79
2021/05/29 09:11:57;;;;;;;8.27;7.57;;;17.80;99.90;;;;;;5034016;28;20517;-80
2021/05/29 09:14:26;;;;;;;9.23;7.10;;;18.00;98.70;;;;;;5023109;28;20412;-79
2021/05/29 09:17:09;;;;;;;8.03;7.47;;;18.00;97.50;;;;;;5033992;28;20441;-79
2021/05/29 09:19:56;;;;;;;8.80;8.00;;;17.80;97.30;;;;;;5033171;28;20432;-79
2021/05/29 09:22:37;;;;;;;8.40;7.60;;;17.70;98.00;;;;;;5033712;28;20433;-79
2021/05/29 09:25:10;;;;;;;11.03;9.07;;;18.00;98.20;;;;;;5033728;28;20428;-79
2021/05/29 09:28:00;;;;;;;10.13;9.40;;;18.00;98.40;;;;;;5033952;28;20483;-79
2021/05/29 09:30:44;;;;;;;13.23;10.13;;;18.10;97.00;;;;;;5043830;28;20989;-80
2021/05/29 09:33:25;;;;;;;9.60;8.80;;;18.10;97.80;;;;;;5073746;28;20427;-86
2021/05/29 09:36:03;;;;;;;9.33;8.47;;;18.10;97.50;;;;;;5023291;28;20455;-83
2021/05/29 09:38:53;;;;;;;10.83;8.50;;;18.20;97.70;;;;;;5020227;28;20423;-83
2021/05/29 09:41:32;;;;;;;9.17;8.47;;;18.40;97.70;;;;;;5000254;28;20448;-84
2021/05/29 09:44:10;;;;;;;8.80;8.17;;;18.70;97.50;;;;;;5019384;28;20903;-83
2021/05/29 09:46:56;;;;;;;9.40;8.60;;;19.00;95.60;;;;;;5044617;28;20715;-83
2021/05/29 09:49:49;;;;;;;8.10;7.30;;;19.20;95.30;;;;;;5023088;28;20444;-83
2021/05/29 09:52:35;;;;;;;9.07;8.47;;;19.20;94.30;;;;;;5000862;28;20882;-83
2021/05/29 09:55:06;;;;;;;9.07;8.37;;;19.10;93.60;;;;;;5003598;28;20459;-83
2021/05/29 09:57:53;;;;;;;9.23;8.53;;;19.30;95.00;;;;;;5026408;28;20942;-85
2021/05/29 10:00:20;;;;;;;8.23;7.57;;;19.70;94.30;;;;;;5036652;28;20433;-84
2021/05/29 10:03:02;;;;;;;9.03;8.33;;;19.80;93.10;;;;;;5042520;28;20501;-84
2021/05/29 10:05:36;;;;;;;9.97;9.07;;;19.80;93.40;;;;;;5037735;28;20945;-84
2021/05/29 10:08:06;;;;;;;9.40;8.50;;;20.00;93.70;;;;;;5007645;28;20411;-84
2021/05/29 10:10:35;;;;;;;10.80;9.67;;;20.20;93.10;;;;;;5037782;28;20486;-83
2021/05/29 10:13:04;;;;;;;10.07;9.20;;;20.50;92.90;;;;;;5041506;28;20425;-81
2021/05/29 10:15:33;;;;;;;11.70;10.80;;;20.70;93.00;;;;;;5023549;28;20609;-80
2021/05/29 10:18:02;;;;;;;10.87;10.03;;;21.00;91.60;;;;;;5033077;28;20456;-83
2021/05/29 10:20:29;;;;;;;11.27;10.57;;;21.30;90.70;;;;;;5031679;28;20435;-83
2021/05/29 10:22:56;;;;;;;10.50;9.70;;;21.30;88.50;;;;;;5019685;28;20442;-81
2021/05/29 10:25:25;;;;;;;11.23;10.13;;;21.20;88.60;;;;;;5035239;28;20444;-83
2021/05/29 10:27:54;;;;;;;9.27;8.53;;;20.80;90.40;;;;;;5042934;28;20493;-85
2021/05/29 10:30:25;;;;;;;9.87;9.07;;;20.70;90.70;;;;;;5036373;28;20466;-83
2021/05/29 10:33:23;;;;;;;9.20;8.57;;;20.50;90.90;;;;;;5003902;28;20883;-82
2021/05/29 10:35:49;;;;;;;9.53;8.80;;;20.50;91.30;;;;;;5003266;28;20466;-84
2021/05/29 10:38:16;;;;;;;10.93;9.70;;;20.70;91.50;;;;;;5022510;28;20441;-84
2021/05/29 10:40:47;;;;;;;9.93;9.10;;;20.90;91.20;;;;;;5023338;28;20964;-83
2021/05/29 10:43:16;;;;;;;10.23;9.27;;;21.00;91.00;;;;;;5035646;28;20434;-83
2021/05/29 10:45:51;;;;;;;10.90;9.90;;;21.30;87.30;;;;;;5003440;28;20451;-83
2021/05/29 10:48:24;;;;;;;10.97;10.17;;;21.70;89.20;;;;;;5014720;28;20895;-85
2021/05/29 10:51:10;;;;;;;10.23;9.53;;;21.80;87.60;;;;;;5018498;28;20451;-84
2021/05/29 10:54:05;;;;;;;10.13;9.20;;;21.90;88.30;;;;;;5019371;28;20440;-83
2021/05/29 10:56:32;;;;;;;10.13;9.40;;;22.20;85.30;;;;;;5012155;28;20466;-83
2021/05/29 10:59:08;;;;;;;19.00;11.70;;;22.70;86.70;;;;;;5037450;28;20518;-85
2021/05/29 11:01:35;;;;;;;10.20;9.50;;;23.20;81.20;;;;;;5002587;28;20871;-84
2021/05/29 11:04:21;;;;;;;10.17;9.47;;;23.60;81.40;;;;;;5035507;28;20415;-84
2021/05/29 11:06:52;;;;;;;10.40;9.43;;;23.70;78.40;;;;;;5036312;28;20477;-83
2021/05/29 11:09:26;;;;;;;11.50;10.60;;;23.70;75.80;;;;;;5003489;28;20722;-81
2021/05/29 11:11:54;;;;;;;9.23;8.53;;;23.70;76.60;;;;;;5035224;28;20440;-82
2021/05/29 11:14:47;;;;;;;10.53;9.83;;;23.60;75.60;;;;;;5003351;28;20435;-82
2021/05/29 11:17:14;;;;;;;10.17;9.47;;;23.90;76.00;;;;;;4986766;28;20455;-84
2021/05/29 11:20:00;;;;;;;9.60;8.90;;;24.10;73.90;;;;;;4999293;28;20448;-82
2021/05/29 11:22:26;;;;;;;10.23;9.43;;;23.90;72.40;;;;;;5031958;28;20448;-82
2021/05/29 11:24:54;;;;;;;11.10;10.30;;;23.50;74.20;;;;;;5000077;28;20454;-82
2021/05/29 11:27:32;;;;;;;10.60;9.80;;;23.50;75.20;;;;;;5015969;28;20502;-82
2021/05/29 11:30:37;;;;;;;10.23;9.53;;;23.80;75.90;;;;;;5033490;28;20474;-83
2021/05/29 11:35:47;;;;;;;9.80;8.90;;;24.90;70.90;;;;;;5011368;28;20466;-84
2021/05/29 11:38:21;;;;;;;10.07;9.27;;;25.40;68.40;;;;;;5021976;28;20425;-82
2021/05/29 11:40:50;;;;;;;10.23;9.40;;;26.10;64.70;;;;;;5052114;28;20448;-82
2021/05/29 11:43:33;;;;;;;10.27;9.37;;;26.80;62.00;;;;;;5019102;28;20463;-83
2021/05/29 11:46:09;;;;;;;12.97;10.67;;;26.70;58.60;;;;;;5002539;28;20524;-82
2021/05/29 11:48:38;;;;;;;10.80;10.10;;;25.70;59.40;;;;;;5002777;28;20442;-83
2021/05/29 11:51:14;;;;;;;10.43;9.50;;;24.90;65.60;;;;;;5018482;28;20534;-82
2021/05/29 11:53:48;;;;;;;9.77;8.97;;;24.40;65.80;;;;;;5014768;28;20439;-83
2021/05/29 11:56:20;;;;;;;10.33;9.43;;;24.30;66.60;;;;;;5017128;28;20470;-83
2021/05/29 11:58:51;;;;;;;10.70;10.00;;;24.70;66.50;;;;;;5035284;28;20427;-83
2021/05/29 12:01:20;;;;;;;10.93;9.90;;;25.10;64.20;;;;;;5006680;28;20540;-84
2021/05/29 12:03:54;;;;;;;11.50;10.43;;;25.30;62.70;;;;;;5002719;28;20435;-82
2021/05/29 12:06:38;;;;;;;10.13;9.33;;;25.00;62.40;;;;;;5002844;28;20425;-82
2021/05/29 12:09:13;;;;;;;10.53;9.73;;;25.20;63.30;;;;;;5003146;28;20508;-88
2021/05/29 12:11:45;;;;;;;10.87;9.97;;;25.60;63.70;;;;;;5002273;28;20408;-85
2021/05/29 12:14:20;;;;;;;10.30;9.53;;;25.30;59.80;;;;;;5013937;28;20480;-81
2021/05/29 12:17:01;;;;;;;11.27;10.37;;;25.20;61.10;;;;;;5021152;28;20479;-83
2021/05/29 12:19:42;;;;;;;10.43;9.67;;;25.90;60.30;;;;;;5009168;28;20437;-84
2021/05/29 12:22:09;;;;;;;10.80;10.00;;;26.40;58.70;;;;;;5034719;28;20435;-83
2021/05/29 12:24:44;;;;;;;9.93;9.33;;;25.70;59.30;;;;;;5008518;28;20458;-83
2021/05/29 12:27:16;;;;;;;10.93;10.17;;;25.70;60.60;;;;;;5015942;28;20466;-84
2021/05/29 12:29:42;;;;;;;9.67;9.17;;;26.10;57.60;;;;;;5001745;28;20473;-83
2021/05/29 12:32:10;;;;;;;10.37;9.60;;;26.20;57.90;;;;;;5006702;28;20436;-83
2021/05/29 12:34:51;;;;;;;10.77;10.00;;;26.60;57.30;;;;;;5002116;28;20431;-84
2021/05/29 12:37:25;;;;;;;11.20;10.33;;;27.00;55.80;;;;;;5001075;28;20504;-82
2021/05/29 12:40:01;;;;;;;10.93;10.13;;;27.30;55.40;;;;;;5015077;28;20438;-83
2021/05/29 12:42:41;;;;;;;10.90;10.13;;;27.50;55.50;;;;;;5017474;28;20453;-85
2021/05/29 12:45:22;;;;;;;10.90;10.03;;;27.50;54.40;;;;;;5010824;28;20915;-84
2021/05/29 12:48:04;;;;;;;10.23;9.43;;;27.30;56.80;;;;;;5003658;28;20526;-84
2021/05/29 12:50:32;;;;;;;12.33;11.57;;;27.90;53.70;;;;;;5025124;28;20504;-83
2021/05/29 12:53:12;;;;;;;12.87;12.07;;;28.60;53.10;;;;;;4996467;28;20505;-82
2021/05/29 12:55:38;;;;;;;13.23;12.23;;;28.10;51.40;;;;;;4999219;28;20483;-82
2021/05/29 12:58:18;;;;;;;11.97;11.07;;;27.40;52.00;;;;;;5014331;28;20430;-81
2021/05/29 13:09:13;;;;;;;11.37;10.40;;;27.60;52.40;;;;;;5000459;28;20744;-83
2021/05/29 13:11:40;;;;;;;12.43;11.63;;;27.20;54.00;;;;;;5001210;28;20442;-83
2021/05/29 13:14:12;;;;;;;11.00;10.30;;;26.90;52.80;;;;;;5000691;28;20443;-83
2021/05/29 13:16:59;;;;;;;11.97;11.07;;;26.60;52.60;;;;;;5019233;28;20465;-82
2021/05/29 13:19:27;;;;;;;10.73;9.67;;;26.20;54.50;;;;;;5025995;28;20435;-82
2021/05/29 13:22:00;;;;;;;11.80;10.87;;;26.00;56.30;;;;;;5001317;28;20420;-81
2021/05/29 13:24:58;;;;;;;11.17;10.33;;;26.10;55.70;;;;;;5000739;28;20445;-84